Time;durP1;ratioP1;P1;durP2;ratioP2;P2;SDS_P1;SDS_P2;PMS_P1;PMS_P2;Temp;Humidity;BMP_temperature;BMP_pressure;BME280_temperature;BME280_humidity;BME280_pressure;Samples;Min_cycle;Max_cycle;Signal;HPM_P1;HPM_P2
2023/03/06 00:00:22;;;;;;;0.60;0.60;;;;;;;-0.66;63.51;99156.72;5026542;28;20034;-65
2023/03/06 00:02:48;;;;;;;0.60;0.60;;;;;;;-0.66;63.40;99164.34;5026677;28;20053;-65
2023/03/06 00:05:15;;;;;;;0.60;0.60;;;;;;;-0.69;63.49;99155.78;5026402;28;20132;-65
2023/03/06 00:07:41;;;;;;;0.60;0.60;;;;;;;-0.66;63.68;99159.25;5026574;28;20025;-65
2023/03/06 00:10:07;;;;;;;0.60;0.60;;;;;;;-0.66;64.01;99149.06;5026781;28;20036;-65
2023/03/06 00:12:32;;;;;;;0.57;0.57;;;;;;;-0.66;64.02;99160.94;5026816;28;20026;-65
2023/03/06 00:14:58;;;;;;;0.60;0.60;;;;;;;-0.69;64.39;99154.09;5025221;28;20037;-66
2023/03/06 00:17:23;;;;;;;0.60;0.60;;;;;;;-0.72;65.00;99154.06;5026772;28;20032;-66
2023/03/06 00:19:48;;;;;;;0.57;0.57;;;;;;;-0.69;64.75;99153.25;5026384;28;20049;-66
2023/03/06 00:22:14;;;;;;;0.60;0.60;;;;;;;-0.71;65.18;99148.13;5024309;28;20037;-66
2023/03/06 00:24:41;;;;;;;0.60;0.60;;;;;;;-0.68;65.13;99149.84;5025611;28;20030;-66
2023/03/06 00:27:08;;;;;;;0.60;0.60;;;;;;;-0.64;65.37;99146.53;5026281;28;20030;-66
2023/03/06 00:29:33;;;;;;;0.60;0.60;;;;;;;-0.66;64.95;99154.16;5025823;28;20041;-66
2023/03/06 00:31:59;;;;;;;0.60;0.60;;;;;;;-0.69;65.02;99150.69;5026328;28;20053;-66
2023/03/06 00:34:25;;;;;;;0.60;0.60;;;;;;;-0.78;65.18;99138.63;5026004;28;20026;-66
2023/03/06 00:36:51;;;;;;;0.60;0.60;;;;;;;-0.75;65.61;99143.78;5025995;28;20038;-66
2023/03/06 00:39:17;;;;;;;0.60;0.60;;;;;;;-0.76;65.54;99137.84;5026058;28;20029;-66
2023/03/06 00:41:42;;;;;;;0.60;0.60;;;;;;;-0.76;66.04;99139.53;5026155;28;20043;-67
2023/03/06 00:44:07;;;;;;;0.55;0.55;;;;;;;-0.74;66.05;99142.97;5025778;28;20032;-66
2023/03/06 00:46:33;;;;;;;0.60;0.60;;;;;;;-0.76;66.58;99137.84;5025608;28;20030;-66
2023/03/06 00:48:58;;;;;;;0.60;0.60;;;;;;;-0.78;66.67;99143.72;5026228;28;20022;-66
2023/03/06 00:51:24;;;;;;;0.70;0.70;;;;;;;-0.84;67.01;99129.19;5025903;28;20026;-65
2023/03/06 00:53:49;;;;;;;0.60;0.60;;;;;;;-0.79;67.54;99130.16;5024140;28;20052;-66
2023/03/06 00:56:15;;;;;;;0.60;0.60;;;;;;;-0.79;67.20;99129.28;5025754;28;20022;-65
2023/03/06 00:58:40;;;;;;;0.50;0.50;;;;;;;-0.81;67.28;99131.81;5024448;28;20037;-65
2023/03/06 01:01:06;;;;;;;0.60;0.60;;;;;;;-0.81;67.84;99130.94;5025380;28;20046;-67
2023/03/06 01:03:31;;;;;;;0.60;0.60;;;;;;;-0.86;67.94;99127.47;5024578;28;20034;-67
2023/03/06 01:05:56;;;;;;;1.02;1.02;;;;;;;-0.83;68.45;99130.91;5025566;28;20037;-68
2023/03/06 01:08:22;;;;;;;0.50;0.50;;;;;;;-0.84;68.72;99124.09;5025895;28;20104;-67
2023/03/06 01:10:47;;;;;;;0.50;0.50;;;;;;;-0.89;68.77;99118.94;5023253;28;20121;-65
2023/03/06 01:13:13;;;;;;;0.60;0.60;;;;;;;-0.87;68.92;99116.41;5025199;28;20022;-67
2023/03/06 01:15:38;;;;;;;0.60;0.60;;;;;;;-0.88;68.91;99122.34;5025373;28;20021;-66
2023/03/06 01:18:04;;;;;;;0.60;0.60;;;;;;;-0.87;69.39;99118.97;5025301;28;20029;-66
2023/03/06 01:20:29;;;;;;;0.60;0.60;;;;;;;-0.88;69.71;99115.53;5025329;28;20080;-66
2023/03/06 01:22:55;;;;;;;0.60;0.60;;;;;;;-0.89;69.45;99106.19;5025467;28;20349;-66
2023/03/06 01:25:22;;;;;;;0.60;0.60;;;;;;;-0.89;69.56;99106.19;5025562;28;20101;-66
2023/03/06 01:27:47;;;;;;;0.60;0.60;;;;;;;-0.89;69.85;99100.22;5023377;28;20060;-66
2023/03/06 01:30:13;;;;;;;0.63;0.63;;;;;;;-0.89;69.51;99102.78;5025017;28;20021;-66
2023/03/06 01:32:39;;;;;;;0.60;0.60;;;;;;;-0.94;69.82;99095.06;5024915;28;20087;-67
2023/03/06 01:35:05;;;;;;;0.60;0.60;;;;;;;-0.91;69.63;99101.91;5025089;28;20101;-67
2023/03/06 01:37:31;;;;;;;0.60;0.60;;;;;;;-0.97;69.37;99092.44;5025081;28;20025;-66
2023/03/06 01:39:56;;;;;;;0.60;0.60;;;;;;;-0.95;69.87;99100.13;5024001;28;20037;-66
2023/03/06 01:42:22;;;;;;;0.60;0.60;;;;;;;-0.96;70.17;99096.75;5025064;28;20500;-66
2023/03/06 01:45:16;;;;;;;0.60;0.60;;;;;;;-0.97;70.25;99094.13;5024688;28;20500;-66
2023/03/06 01:47:43;;;;;;;0.60;0.60;;;;;;;-1.00;70.17;99087.31;4983092;28;20046;-67
2023/03/06 01:50:10;;;;;;;0.60;0.60;;;;;;;-1.03;70.34;99087.25;4982993;28;20051;-67
2023/03/06 01:52:40;;;;;;;0.60;0.60;;;;;;;-1.02;69.98;99088.97;4983073;28;20039;-66
2023/03/06 01:55:14;;;;;;;0.60;0.60;;;;;;;-1.04;70.27;99086.38;4983210;28;20053;-66
2023/03/06 01:57:44;;;;;;;0.60;0.60;;;;;;;-1.07;70.55;99086.34;4983199;28;20384;-67
2023/03/06 02:00:15;;;;;;;0.60;0.60;;;;;;;-1.06;70.89;99085.53;4966686;28;20107;-67
2023/03/06 02:02:50;;;;;;;0.70;0.70;;;;;;;-1.07;70.86;99083.78;4983235;28;20054;-67
2023/03/06 02:05:16;;;;;;;1.38;1.38;;;;;;;-1.07;70.60;99086.34;4982945;28;20042;-66
2023/03/06 02:07:43;;;;;;;0.60;0.60;;;;;;;-1.07;70.50;99081.25;4982919;28;20027;-66
2023/03/06 02:10:09;;;;;;;0.60;0.60;;;;;;;-1.11;70.83;99079.47;4983088;28;20054;-66
2023/03/06 02:12:36;;;;;;;0.60;0.60;;;;;;;-1.06;70.52;99077.88;4983154;28;20059;-66
2023/03/06 02:15:02;;;;;;;0.60;0.60;;;;;;;-1.09;70.52;99077.84;4983112;28;20027;-66
2023/03/06 02:17:28;;;;;;;0.60;0.60;;;;;;;-1.13;70.32;99076.91;4982863;28;20136;-66
2023/03/06 02:20:35;;;;;;;0.60;0.60;;;;;;;-1.14;70.94;99080.28;4967096;28;20034;-67
2023/03/06 02:23:03;;;;;;;0.60;0.60;;;;;;;-1.16;71.04;99076.00;4984021;28;20042;-67
2023/03/06 02:25:45;;;;;;;0.60;0.60;;;;;;;-1.16;71.24;99070.88;5023083;28;20026;-67
2023/03/06 02:28:12;;;;;;;;;;;;;;;-1.17;71.41;99069.19;5024960;28;20541;-67
2023/03/06 02:30:38;;;;;;;0.60;0.60;;;;;;;-1.21;71.01;99065.72;5024506;28;19909;-67
2023/03/06 02:33:04;;;;;;;0.60;0.60;;;;;;;-1.23;70.96;99064.00;5024399;28;20030;-67
2023/03/06 02:35:33;;;;;;;0.50;0.50;;;;;;;-1.21;71.50;99054.66;5024149;28;20080;-66
2023/03/06 02:38:03;;;;;;;0.60;0.60;;;;;;;-1.24;71.14;99060.56;5025441;28;20033;-67
2023/03/06 02:40:28;;;;;;;0.60;0.60;;;;;;;-1.23;70.88;99061.44;5028479;28;20105;-67
2023/03/06 02:42:56;;;;;;;0.60;0.60;;;;;;;-1.25;71.28;99061.41;5026720;28;20029;-66
2023/03/06 02:45:31;;;;;;;0.55;0.55;;;;;;;-1.26;71.52;99062.22;5027944;28;20026;-67
2023/03/06 02:47:56;;;;;;;0.50;0.50;;;;;;;-1.27;71.32;99053.75;5028159;28;20051;-67
2023/03/06 02:50:22;;;;;;;0.60;0.60;;;;;;;-1.30;70.97;99047.72;5028006;28;20053;-67
2023/03/06 02:52:47;;;;;;;0.60;0.60;;;;;;;-1.26;70.81;99052.91;5028572;28;20467;-66
2023/03/06 02:55:13;;;;;;;0.57;0.57;;;;;;;-1.29;71.06;99051.97;5031209;28;20060;-68
2023/03/06 02:57:38;;;;;;;0.60;0.60;;;;;;;-1.30;71.55;99051.16;5027806;28;20075;-67
2023/03/06 03:00:04;;;;;;;0.60;0.60;;;;;;;-1.31;71.26;99048.56;5027362;28;20017;-67
2023/03/06 03:02:31;;;;;;;0.60;0.60;;;;;;;-1.35;70.88;99042.56;5027721;28;20067;-67
2023/03/06 03:04:57;;;;;;;0.60;0.60;;;;;;;-1.38;70.61;99045.06;5027638;28;20040;-67
2023/03/06 03:07:22;;;;;;;0.60;0.60;;;;;;;-1.46;70.99;99037.28;5026283;28;20307;-67
2023/03/06 03:09:47;;;;;;;0.50;0.50;;;;;;;-1.46;70.38;99041.50;5027496;28;20486;-67
2023/03/06 03:12:13;;;;;;;0.57;0.57;;;;;;;-1.48;70.84;99038.94;5027458;28;20025;-66
2023/03/06 03:14:38;;;;;;;0.55;0.55;;;;;;;-1.52;70.60;99038.00;5027893;28;20026;-67
2023/03/06 03:17:04;;;;;;;0.60;0.60;;;;;;;-1.47;70.03;99038.09;5027738;28;20025;-67
2023/03/06 03:19:29;;;;;;;0.60;0.60;;;;;;;-1.48;70.37;99030.41;5027517;28;20359;-67
2023/03/06 03:21:55;;;;;;;0.60;0.60;;;;;;;-1.52;70.15;99040.56;5027746;28;20018;-67
2023/03/06 03:24:20;;;;;;;0.60;0.60;;;;;;;-1.53;69.69;99032.88;5027245;28;20446;-67
2023/03/06 03:26:46;;;;;;;0.60;0.60;;;;;;;-1.55;69.58;99032.84;5027323;28;20113;-67
2023/03/06 03:29:11;;;;;;;0.60;0.60;;;;;;;-1.61;69.66;99030.19;5026424;28;20104;-67
2023/03/06 03:31:37;;;;;;;0.60;0.60;;;;;;;-1.61;69.94;99025.13;5025783;28;20025;-67
2023/03/06 03:34:02;;;;;;;0.60;0.60;;;;;;;-1.65;69.59;99025.91;5027335;28;20088;-67
2023/03/06 03:36:28;;;;;;;0.50;0.50;;;;;;;-1.72;70.13;99026.59;5025002;28;20485;-66
2023/03/06 03:38:54;;;;;;;0.60;0.60;;;;;;;-1.77;70.34;99022.28;5026490;28;20022;-67
2023/03/06 03:41:19;;;;;;;0.60;0.60;;;;;;;-1.77;70.69;99024.81;5027120;28;20018;-66
2023/03/06 03:43:45;;;;;;;0.60;0.60;;;;;;;-1.73;70.64;99018.13;5026526;28;20030;-66
2023/03/06 03:46:10;;;;;;;2.15;1.95;;;;;;;-1.75;70.59;99015.53;5026845;28;20025;-67
2023/03/06 03:48:36;;;;;;;0.60;0.60;;;;;;;-1.75;70.66;99010.47;5026921;28;20112;-67
2023/03/06 03:51:06;;;;;;;0.60;0.60;;;;;;;-1.78;71.03;99023.13;5026626;28;20490;-67
2023/03/06 03:53:31;;;;;;;0.60;0.60;;;;;;;-1.80;71.05;99013.72;5025567;28;20041;-67
2023/03/06 03:55:57;;;;;;;0.60;0.60;;;;;;;-1.82;71.55;99017.94;5027020;28;20064;-67
2023/03/06 03:58:22;;;;;;;0.60;0.60;;;;;;;-1.84;71.95;99010.28;5027136;28;20030;-67
2023/03/06 04:00:48;;;;;;;0.60;0.60;;;;;;;-1.83;71.35;99016.22;5026731;28;20030;-66
2023/03/06 04:03:13;;;;;;;0.60;0.60;;;;;;;-1.82;70.66;99008.59;5026436;28;20030;-67
2023/03/06 04:05:38;;;;;;;0.60;0.60;;;;;;;-1.82;70.04;99012.84;5026547;28;20026;-67
2023/03/06 04:08:04;;;;;;;0.60;0.60;;;;;;;-1.83;69.65;98998.41;5025861;28;20029;-66
2023/03/06 04:10:30;;;;;;;0.60;0.60;;;;;;;-1.85;69.23;98993.28;5025035;28;20417;-68
2023/03/06 04:12:56;;;;;;;0.50;0.50;;;;;;;-1.92;68.77;98982.16;5027066;28;20086;-68
2023/03/06 04:15:21;;;;;;;0.60;0.60;;;;;;;-1.88;68.15;98998.31;5026289;28;20030;-68
2023/03/06 04:17:47;;;;;;;0.68;0.68;;;;;;;-1.92;67.89;98994.00;5025117;28;20040;-66
2023/03/06 04:20:13;;;;;;;0.50;0.50;;;;;;;-2.01;67.76;98980.28;5026457;28;20069;-66
2023/03/06 04:22:38;;;;;;;0.55;0.55;;;;;;;-2.00;67.53;98989.63;5026455;28;20265;-68
2023/03/06 04:25:04;;;;;;;0.60;0.60;;;;;;;-2.05;67.40;98988.69;5024023;28;20385;-66
2023/03/06 04:27:30;;;;;;;0.50;0.50;;;;;;;-2.13;67.00;98987.66;5025496;28;20025;-67
2023/03/06 04:29:55;;;;;;;0.60;0.60;;;;;;;-2.29;66.94;98986.50;5026114;28;20025;-67
2023/03/06 04:32:22;;;;;;;0.60;0.60;;;;;;;-2.42;66.93;98986.25;5025998;28;20045;-67
2023/03/06 04:34:47;;;;;;;0.70;0.70;;;;;;;-2.58;67.28;98972.34;5025584;28;20037;-67
2023/03/06 04:37:19;;;;;;;0.55;0.55;;;;;;;-2.59;67.37;98978.25;5025874;28;20026;-68
2023/03/06 04:39:44;;;;;;;;;;;;;;;-2.64;67.53;98990.88;5026522;28;20088;-68
2023/03/06 04:42:09;;;;;;;0.60;0.60;;;;;;;-2.72;67.25;98978.81;5025883;28;20353;-67
2023/03/06 04:44:35;;;;;;;0.60;0.60;;;;;;;-2.79;67.12;98981.19;5025769;28;20033;-68
2023/03/06 04:47:00;;;;;;;0.70;0.70;;;;;;;-2.83;67.30;98981.97;5024329;28;20033;-68
2023/03/06 04:49:26;;;;;;;0.60;0.60;;;;;;;-2.81;67.24;98982.00;5025382;28;20022;-68
2023/03/06 04:51:51;;;;;;;0.70;0.70;;;;;;;-2.80;67.48;98968.47;5025415;28;20029;-67
2023/03/06 04:54:16;;;;;;;0.70;0.70;;;;;;;-2.80;67.84;98974.41;5025595;28;20109;-67
2023/03/06 04:56:42;;;;;;;0.60;0.60;;;;;;;-2.82;68.12;98973.50;5025540;28;20042;-68
2023/03/06 04:59:07;;;;;;;0.70;0.70;;;;;;;-2.89;68.13;98964.06;5025359;28;20026;-67
2023/03/06 05:01:32;;;;;;;0.60;0.60;;;;;;;-2.87;67.99;98975.09;5024514;28;20438;-69
2023/03/06 05:03:58;;;;;;;0.68;0.68;;;;;;;-2.90;67.79;98969.94;5025288;28;20467;-68
2023/03/06 05:06:23;;;;;;;0.70;0.70;;;;;;;-2.93;67.71;98973.28;5024002;28;20026;-67
2023/03/06 05:08:49;;;;;;;0.60;0.60;;;;;;;-2.97;67.90;98971.47;5025674;28;20088;-68
2023/03/06 05:11:14;;;;;;;0.60;0.60;;;;;;;-2.97;68.18;98963.84;5025219;28;20096;-67
2023/03/06 05:13:39;;;;;;;0.68;0.68;;;;;;;-2.97;68.11;98970.63;5025090;28;20386;-67
2023/03/06 05:16:06;;;;;;;0.60;0.60;;;;;;;-3.00;68.11;98957.03;5025506;28;20029;-68
2023/03/06 05:18:33;;;;;;;0.60;0.60;;;;;;;-2.93;68.16;98960.56;5025126;28;20036;-68
2023/03/06 05:20:58;;;;;;;0.60;0.60;;;;;;;-2.90;68.49;98964.84;5024875;28;20091;-67
2023/03/06 05:23:27;;;;;;;0.70;0.70;;;;;;;-2.93;68.84;98963.13;5025292;28;20459;-67
2023/03/06 05:25:53;;;;;;;0.68;0.68;;;;;;;-3.00;69.37;98966.31;5024811;28;20022;-66
2023/03/06 05:28:19;;;;;;;0.60;0.60;;;;;;;-3.03;69.02;98961.16;5025393;28;20382;-68
2023/03/06 05:30:45;;;;;;;0.57;0.57;;;;;;;-3.09;68.74;98956.81;5025146;28;20064;-68
2023/03/06 05:33:10;;;;;;;0.60;0.60;;;;;;;-3.13;68.99;98953.34;5025454;28;20030;-67
2023/03/06 05:35:35;;;;;;;0.60;0.60;;;;;;;-3.16;69.33;98957.47;5025136;28;20017;-68
2023/03/06 05:38:01;;;;;;;0.50;0.50;;;;;;;-3.17;69.58;98950.69;5025260;28;20049;-66
2023/03/06 05:40:26;;;;;;;0.60;0.60;;;;;;;-3.14;70.04;98959.25;5024869;28;20037;-67
2023/03/06 05:42:52;;;;;;;0.68;0.68;;;;;;;-3.09;70.08;98953.41;5024230;28;20029;-68
2023/03/06 05:45:18;;;;;;;0.60;0.60;;;;;;;-3.10;70.16;98952.56;5023189;28;20018;-66
2023/03/06 05:47:43;;;;;;;0.60;0.60;;;;;;;-3.11;70.15;98953.38;5024780;28;20030;-67
2023/03/06 05:50:09;;;;;;;0.60;0.60;;;;;;;-3.05;70.13;98950.97;5024771;28;20045;-68
2023/03/06 05:52:35;;;;;;;0.60;0.60;;;;;;;-2.90;70.39;98957.25;5024770;28;20026;-67
2023/03/06 05:55:01;;;;;;;0.70;0.70;;;;;;;-2.78;70.23;98952.44;5025680;28;20054;-68
2023/03/06 05:57:26;;;;;;;0.60;0.60;;;;;;;-2.74;70.07;98944.06;5025178;28;20061;-66
2023/03/06 05:59:52;;;;;;;0.70;0.70;;;;;;;-2.67;70.03;98949.28;5024975;28;20390;-67
2023/03/06 06:02:18;;;;;;;0.60;0.60;;;;;;;-2.70;70.15;98946.66;5023823;28;20063;-67
2023/03/06 06:04:44;;;;;;;0.70;0.70;;;;;;;-2.64;70.14;98946.81;5024837;28;20026;-68
2023/03/06 06:07:12;;;;;;;0.60;0.60;;;;;;;-2.53;70.51;98942.81;5024757;28;20113;-68
2023/03/06 06:09:38;;;;;;;0.60;0.60;;;;;;;-2.43;70.49;98946.38;5006676;28;20034;-67
2023/03/06 06:12:03;;;;;;;0.60;0.60;;;;;;;-2.41;70.08;98939.66;5025631;28;20022;-68
2023/03/06 06:14:32;;;;;;;0.60;0.60;;;;;;;-2.36;70.31;98944.81;5028706;28;20044;-68
2023/03/06 06:16:57;;;;;;;0.65;0.65;;;;;;;-2.48;70.03;98927.66;5028522;28;20037;-67
2023/03/06 06:19:23;;;;;;;0.60;0.60;;;;;;;-2.37;70.45;98938.03;5028930;28;20136;-68
2023/03/06 06:21:51;;;;;;;0.60;0.60;;;;;;;-2.35;70.43;98930.44;5028571;28;20041;-68
2023/03/06 06:24:19;;;;;;;0.68;0.68;;;;;;;-2.21;70.39;98935.78;5028508;28;20095;-69
2023/03/06 06:26:45;;;;;;;0.60;0.60;;;;;;;-2.19;70.40;98929.91;5027044;28;20085;-68
2023/03/06 06:29:12;;;;;;;1.40;1.40;;;;;;;-2.03;70.12;98940.38;5028133;28;20014;-68
2023/03/06 06:31:38;;;;;;;0.60;0.60;;;;;;;-1.97;69.97;98942.19;5028531;28;20074;-67
2023/03/06 06:34:04;;;;;;;0.60;0.60;;;;;;;-1.97;69.92;98942.19;5028436;28;20098;-68
2023/03/06 06:36:30;;;;;;;0.60;0.60;;;;;;;-1.87;69.83;98942.38;5028013;28;20026;-67
2023/03/06 06:38:55;;;;;;;0.70;0.70;;;;;;;-1.77;69.86;98940.00;5028420;28;20037;-67
2023/03/06 06:41:21;;;;;;;0.60;0.60;;;;;;;-1.43;70.08;98947.34;5028314;28;20116;-67
2023/03/06 06:43:46;;;;;;;0.60;0.60;;;;;;;-0.88;70.50;98941.44;5027976;28;20349;-67
2023/03/06 06:46:12;;;;;;;0.60;0.60;;;;;;;-0.06;70.76;98941.59;5028185;28;20088;-66
2023/03/06 06:48:37;;;;;;;0.55;0.55;;;;;;;0.79;71.10;98935.56;5027028;28;20093;-67
2023/03/06 06:51:03;;;;;;;0.60;0.60;;;;;;;1.66;71.32;98936.94;5027923;28;20022;-67
2023/03/06 06:53:29;;;;;;;0.60;0.60;;;;;;;2.46;71.33;98945.69;5028141;28;20047;-66
2023/03/06 06:55:57;;;;;;;0.50;0.50;;;;;;;3.20;70.87;98937.09;5028399;28;20068;-67
2023/03/06 06:58:23;;;;;;;0.50;0.50;;;;;;;3.86;70.56;98931.75;5028078;28;20022;-66
2023/03/06 07:00:48;;;;;;;0.50;0.50;;;;;;;4.52;69.88;98928.78;5027623;28;20435;-67
2023/03/06 07:03:14;;;;;;;0.45;0.45;;;;;;;5.25;70.13;98938.41;5027630;28;20025;-66
2023/03/06 07:05:39;;;;;;;0.50;0.50;;;;;;;5.83;69.64;98930.88;5026401;28;20025;-67
2023/03/06 07:08:05;;;;;;;0.40;0.40;;;;;;;6.39;69.01;98931.88;5026230;28;20025;-67
2023/03/06 07:10:31;;;;;;;0.40;0.40;;;;;;;6.82;68.37;98939.81;5027599;28;20026;-67
2023/03/06 07:12:57;;;;;;;0.50;0.50;;;;;;;7.34;68.03;98942.34;5027597;28;20033;-67
2023/03/06 07:15:25;;;;;;;0.40;0.40;;;;;;;7.74;67.20;98945.03;5027474;28;20045;-67
2023/03/06 07:17:51;;;;;;;14.15;2.25;;;;;;;7.89;66.57;98944.69;5027578;28;20029;-67
2023/03/06 07:20:17;;;;;;;0.40;0.40;;;;;;;8.22;65.46;98937.97;5027477;28;20037;-66
2023/03/06 07:22:43;;;;;;;0.40;0.40;;;;;;;8.14;62.80;98939.00;5027894;28;20018;-66
2023/03/06 07:25:09;;;;;;;0.50;0.50;;;;;;;7.83;60.80;98939.66;5026750;28;20022;-66
2023/03/06 07:27:34;;;;;;;0.65;0.65;;;;;;;7.74;61.63;98938.13;5027377;28;20060;-68
2023/03/06 07:29:59;;;;;;;0.40;0.40;;;;;;;7.87;62.24;98936.16;5027438;28;20425;-68
2023/03/06 07:32:25;;;;;;;0.45;0.45;;;;;;;8.29;62.61;98936.97;5027611;28;20094;-68
2023/03/06 07:34:50;;;;;;;0.40;0.40;;;;;;;8.52;61.14;98938.16;5027034;28;20018;-68
2023/03/06 07:37:16;;;;;;;0.40;0.40;;;;;;;8.32;59.85;98942.06;5026863;28;20202;-68
2023/03/06 07:39:41;;;;;;;0.43;0.43;;;;;;;8.23;60.34;98942.25;5027024;28;20025;-67
2023/03/06 07:42:10;;;;;;;0.50;0.50;;;;;;;8.23;61.14;98940.53;5027106;28;20026;-67
2023/03/06 07:44:36;;;;;;;0.50;0.50;;;;;;;8.38;59.95;98947.09;5027110;28;20053;-67
2023/03/06 07:47:02;;;;;;;0.40;0.40;;;;;;;8.15;58.74;98940.69;5027011;28;20041;-67
2023/03/06 07:49:28;;;;;;;0.50;0.50;;;;;;;8.14;59.39;98943.31;5026946;28;20049;-66
2023/03/06 07:51:53;;;;;;;0.60;0.60;;;;;;;8.35;60.85;98934.25;5026870;28;20026;-66
2023/03/06 07:54:18;;;;;;;0.47;0.47;;;;;;;8.64;61.48;98947.41;5026785;28;20060;-67
2023/03/06 07:56:44;;;;;;;0.40;0.40;;;;;;;9.00;61.43;98942.19;5026670;28;20029;-66
2023/03/06 07:59:10;;;;;;;0.40;0.40;;;;;;;9.24;60.90;98942.44;5027110;28;20080;-67
2023/03/06 08:01:38;;;;;;;0.40;0.40;;;;;;;9.40;59.31;98945.47;5026721;28;20029;-67
2023/03/06 08:04:04;;;;;;;1.13;1.02;;;;;;;9.35;59.07;98942.16;5026843;28;20026;-67
2023/03/06 08:06:30;;;;;;;0.50;0.50;;;;;;;9.35;56.53;98949.06;5026449;28;20033;-66
2023/03/06 08:08:56;;;;;;;0.40;0.40;;;;;;;9.20;54.95;98942.56;5026778;28;20261;-66
2023/03/06 08:11:24;;;;;;;0.60;0.60;;;;;;;9.13;55.50;98950.50;5026580;28;20030;-66
2023/03/06 08:13:51;;;;;;;0.40;0.40;;;;;;;9.01;55.31;98941.31;5025579;28;20021;-66
2023/03/06 08:16:19;;;;;;;0.40;0.40;;;;;;;9.03;54.97;98949.03;5026253;28;20026;-65
2023/03/06 08:18:44;;;;;;;0.40;0.40;;;;;;;9.16;55.13;98952.16;5026754;28;20042;-66
2023/03/06 08:21:13;;;;;;;0.40;0.40;;;;;;;9.33;53.42;98949.09;5026579;28;20025;-66
2023/03/06 08:23:39;;;;;;;0.40;0.40;;;;;;;9.82;53.16;98951.25;5026533;28;20025;-66
2023/03/06 08:26:12;;;;;;;0.43;0.43;;;;;;;10.22;52.20;98930.22;5026427;28;20033;-66
2023/03/06 08:28:38;;;;;;;0.40;0.40;;;;;;;10.77;50.08;98952.72;5024905;28;20026;-65
2023/03/06 08:31:11;;;;;;;0.40;0.40;;;;;;;11.21;47.35;98948.69;5026183;28;20037;-66
2023/03/06 08:33:37;;;;;;;0.40;0.40;;;;;;;11.61;46.72;98947.25;5025085;28;20056;-67
2023/03/06 08:36:03;;;;;;;0.73;0.73;;;;;;;12.07;46.31;98946.47;5024959;28;20037;-67
2023/03/06 08:38:29;;;;;;;0.40;0.40;;;;;;;12.42;43.93;98940.84;5026136;28;20385;-65
2023/03/06 08:40:54;;;;;;;0.40;0.40;;;;;;;12.72;42.87;98942.25;5026212;28;20112;-65
2023/03/06 08:43:20;;;;;;;0.30;0.30;;;;;;;12.96;41.90;98939.53;5025479;28;20085;-65
2023/03/06 08:45:51;;;;;;;0.40;0.40;;;;;;;12.94;41.47;98943.97;5024566;28;20160;-67
2023/03/06 08:48:16;;;;;;;0.50;0.50;;;;;;;12.82;40.90;98947.94;5026027;28;20029;-66
2023/03/06 08:50:42;;;;;;;0.40;0.40;;;;;;;12.79;40.27;98945.44;5025825;28;20030;-66
2023/03/06 08:53:07;;;;;;;0.40;0.40;;;;;;;12.67;40.25;98944.22;5025806;28;20046;-65
2023/03/06 08:55:36;;;;;;;0.95;0.95;;;;;;;12.63;38.56;98948.69;5026019;28;20018;-66
2023/03/06 08:58:02;;;;;;;0.40;0.40;;;;;;;12.38;38.69;98947.06;5025517;28;20030;-66
2023/03/06 09:00:28;;;;;;;0.40;0.40;;;;;;;12.25;38.37;98949.31;5025139;28;20033;-66
2023/03/06 09:02:53;;;;;;;0.30;0.30;;;;;;;12.08;38.45;98950.78;5024685;28;20538;-66
2023/03/06 09:05:19;;;;;;;0.40;0.40;;;;;;;11.89;37.54;98951.47;5025626;28;20048;-66
2023/03/06 09:07:44;;;;;;;0.40;0.40;;;;;;;11.88;37.94;98954.13;5025447;28;20052;-66
2023/03/06 09:10:16;;;;;;;0.40;0.40;;;;;;;11.75;36.63;98953.72;5025933;28;20025;-65
2023/03/06 09:12:42;;;;;;;0.40;0.40;;;;;;;11.82;37.34;98955.19;5025536;28;20022;-65
2023/03/06 09:15:09;;;;;;;0.40;0.40;;;;;;;12.09;38.26;98947.28;5025007;28;20034;-65
2023/03/06 09:17:34;;;;;;;0.40;0.40;;;;;;;12.36;36.90;98947.09;5025414;28;20053;-65
2023/03/06 09:19:59;;;;;;;0.30;0.30;;;;;;;12.79;37.55;98948.06;5025420;28;20084;-65
2023/03/06 09:22:25;;;;;;;0.30;0.30;;;;;;;12.95;35.70;98956.94;5025411;28;20049;-65
2023/03/06 09:24:51;;;;;;;0.30;0.30;;;;;;;13.19;34.03;98946.41;5024158;28;20381;-66
2023/03/06 09:27:16;;;;;;;0.30;0.30;;;;;;;13.01;32.41;98948.00;5024064;28;20018;-64
2023/03/06 09:29:42;;;;;;;0.30;0.30;;;;;;;12.58;33.08;98942.81;5025098;28;20028;-65
2023/03/06 09:32:07;;;;;;;0.35;0.35;;;;;;;12.47;33.15;98949.31;5025062;28;20030;-65
2023/03/06 09:34:33;;;;;;;0.30;0.30;;;;;;;12.71;34.83;98945.78;5025394;28;20080;-65
2023/03/06 09:37:01;;;;;;;0.80;0.80;;;;;;;13.27;35.17;98941.69;5023765;28;20033;-65
2023/03/06 09:39:26;;;;;;;0.30;0.30;;;;;;;13.96;34.50;98936.09;5024877;28;20030;-65
2023/03/06 09:41:52;;;;;;;0.30;0.30;;;;;;;14.17;33.75;98935.16;5024870;28;20029;-66
2023/03/06 09:44:21;;;;;;;0.55;0.55;;;;;;;13.33;33.94;98932.75;5024874;28;20054;-66
2023/03/06 09:47:01;;;;;;;0.30;0.30;;;;;;;12.35;33.89;98934.16;5023611;28;20052;-66
2023/03/06 09:50:04;;;;;;;0.30;0.30;;;;;;;12.49;34.26;98936.25;5024871;28;20081;-66
2023/03/06 09:52:35;;;;;;;;;;;;;;;13.46;33.47;98937.44;5025181;28;20021;-65
2023/03/06 09:55:03;;;;;;;0.40;0.40;;;;;;;13.51;32.89;98930.28;5040344;28;20366;-65
2023/03/06 09:57:36;;;;;;;0.40;0.40;;;;;;;13.78;32.95;98935.19;5025189;28;20089;-65
2023/03/06 10:00:12;;;;;;;0.30;0.30;;;;;;;13.99;31.31;98933.31;5024949;28;20032;-65
2023/03/06 10:02:55;;;;;;;0.30;0.30;;;;;;;14.33;30.99;98932.69;5025231;28;20020;-64
2023/03/06 10:05:30;;;;;;;0.30;0.30;;;;;;;15.40;30.69;98926.53;5025170;28;20045;-65
2023/03/06 10:08:01;;;;;;;0.30;0.30;;;;;;;16.21;30.89;98926.66;5024945;28;20032;-66
2023/03/06 10:10:47;;;;;;;0.40;0.40;;;;;;;17.03;30.83;98929.00;5024957;28;20033;-66
2023/03/06 10:13:37;;;;;;;0.30;0.30;;;;;;;16.96;27.84;98927.69;5025016;28;20022;-66
2023/03/06 10:16:12;;;;;;;0.30;0.30;;;;;;;17.05;29.48;98923.66;5024607;28;20026;-66
2023/03/06 10:18:37;;;;;;;0.30;0.30;;;;;;;16.56;28.79;98922.97;5023785;28;20096;-64
2023/03/06 10:21:16;;;;;;;0.50;0.50;;;;;;;16.21;29.74;98924.88;5024725;28;20458;-65
2023/03/06 10:23:54;;;;;;;0.30;0.30;;;;;;;15.76;29.02;98924.69;5023993;28;20501;-65
2023/03/06 10:26:35;;;;;;;0.30;0.30;;;;;;;15.74;29.34;98923.91;5024754;28;20022;-65
2023/03/06 10:29:10;;;;;;;0.40;0.40;;;;;;;16.18;29.73;98919.81;5023049;28;20030;-65
2023/03/06 10:31:39;;;;;;;0.30;0.30;;;;;;;16.66;26.91;98921.50;5024798;28;20022;-65
2023/03/06 10:34:21;;;;;;;0.30;0.30;;;;;;;16.65;26.48;98916.34;5024777;28;20121;-65
2023/03/06 10:36:47;;;;;;;0.30;0.30;;;;;;;16.79;27.23;98912.94;5024400;28;20032;-65
2023/03/06 10:39:18;;;;;;;0.30;0.30;;;;;;;17.24;27.77;98912.94;5024819;28;20030;-65
2023/03/06 10:41:45;;;;;;;0.30;0.30;;;;;;;18.14;26.72;98909.22;5024641;28;20018;-65
2023/03/06 10:44:10;;;;;;;0.20;0.20;;;;;;;18.32;26.08;98906.34;5023302;28;20034;-65
2023/03/06 10:46:41;;;;;;;0.20;0.20;;;;;;;17.99;25.55;98904.94;5024428;28;20063;-66
2023/03/06 10:49:36;;;;;;;0.20;0.20;;;;;;;17.68;23.63;98910.31;5024520;28;20022;-65
2023/03/06 10:52:05;;;;;;;0.30;0.30;;;;;;;17.56;23.83;98909.28;5019729;28;20030;-65
2023/03/06 10:54:37;;;;;;;0.30;0.30;;;;;;;17.65;23.72;98905.25;5024575;28;20054;-65
2023/03/06 10:57:25;;;;;;;;;;;;;;;17.82;23.43;98912.06;5024590;28;20021;-65
2023/03/06 10:59:57;;;;;;;0.20;0.20;;;;;;;16.63;23.67;98903.34;5020854;28;20400;-65
2023/03/06 11:02:31;;;;;;;0.30;0.30;;;;;;;15.48;24.24;98902.59;5028545;28;20022;-65
2023/03/06 11:04:59;;;;;;;0.20;0.20;;;;;;;14.34;25.69;98903.03;5027823;28;20483;-65
2023/03/06 11:07:27;;;;;;;0.30;0.30;;;;;;;13.54;26.75;98909.28;5028099;28;20022;-65
2023/03/06 11:09:55;;;;;;;0.30;0.30;;;;;;;13.25;27.11;98909.66;5027808;28;20033;-65
2023/03/06 11:12:24;;;;;;;0.30;0.30;;;;;;;12.68;27.08;98905.09;5027941;28;20026;-65
2023/03/06 11:15:08;;;;;;;0.30;0.30;;;;;;;12.22;27.71;98902.59;5027242;28;20056;-65
2023/03/06 11:17:47;;;;;;;0.30;0.30;;;;;;;12.19;27.88;98910.53;5027555;28;20093;-65
2023/03/06 11:20:27;;;;;;;0.40;0.40;;;;;;;11.76;28.47;98908.63;5027794;28;20025;-66
2023/03/06 11:23:01;;;;;;;0.50;0.50;;;;;;;11.92;28.74;98914.09;5027973;28;20077;-65
2023/03/06 11:25:49;;;;;;;0.32;0.32;;;;;;;12.33;28.51;98899.56;5027536;28;20030;-65
2023/03/06 11:28:23;;;;;;;0.40;0.40;;;;;;;13.16;27.57;98901.38;5027558;28;20030;-65
2023/03/06 11:30:56;;;;;;;0.30;0.30;;;;;;;14.15;27.38;98903.06;5027158;28;20496;-65
2023/03/06 11:33:59;;;;;;;0.30;0.30;;;;;;;15.69;26.25;98905.84;5027667;28;20040;-65
2023/03/06 11:36:33;;;;;;;0.30;0.30;;;;;;;17.22;25.14;98896.47;5027471;28;20485;-65
2023/03/06 11:39:00;;;;;;;0.30;0.30;;;;;;;17.40;24.36;98893.63;5027351;28;20037;-65